TimeEDT,TemperatureF,Dew PointF,Humidity,Sea Level PressureIn,VisibilityMPH,Wind Direction,Wind SpeedMPH,Gust SpeedMPH,PrecipitationIn,Events,Conditions,WindDirDegrees,DateUTC
12:54 AM,63.0,57.0,81,29.96,10.0,East,9.2,-,0.00,,Overcast,100,2013-05-07 04:54:00
1:19 AM,62.6,57.2,82,29.97,10.0,East,10.4,-,N/A,,Mostly Cloudy,100,2013-05-07 05:19:00
1:54 AM,62.1,57.0,84,29.95,10.0,East,9.2,-,N/A,,Mostly Cloudy,100,2013-05-07 05:54:00
2:12 AM,64.4,57.2,77,29.94,10.0,East,9.2,-,N/A,,Mostly Cloudy,100,2013-05-07 06:12:00
2:22 AM,62.6,57.2,82,29.94,10.0,East,9.2,-,N/A,,Mostly Cloudy,100,2013-05-07 06:22:00
2:40 AM,62.6,57.2,82,29.93,10.0,East,9.2,-,N/A,,Overcast,100,2013-05-07 06:40:00
2:54 AM,63.0,57.0,81,29.93,10.0,East,8.1,-,N/A,,Overcast,100,2013-05-07 06:54:00
3:28 AM,62.6,57.2,82,29.92,9.0,East,6.9,-,0.00,Rain,Light Rain,90,2013-05-07 07:28:00
3:54 AM,63.0,57.0,81,29.92,6.0,ENE,10.4,-,0.01,Rain,Light Rain,70,2013-05-07 07:54:00
4:02 AM,62.6,57.2,82,29.93,9.0,East,10.4,-,0.00,Rain,Light Rain,90,2013-05-07 08:02:00
4:11 AM,62.6,57.2,82,29.93,9.0,East,10.4,-,0.00,,Overcast,90,2013-05-07 08:11:00
4:54 AM,63.0,57.9,84,29.91,7.0,East,10.4,19.6,0.01,Rain,Light Rain,90,2013-05-07 08:54:00
5:54 AM,63.0,57.9,84,29.90,10.0,ESE,9.2,-,0.01,,Overcast,110,2013-05-07 09:54:00
6:14 AM,64.4,57.2,77,29.91,10.0,ESE,10.4,-,N/A,,Scattered Clouds,110,2013-05-07 10:14:00
6:54 AM,64.0,59.0,84,29.92,9.0,East,8.1,-,0.00,,Overcast,100,2013-05-07 10:54:00
7:52 AM,64.4,59.0,83,29.92,9.0,ESE,8.1,-,N/A,,Overcast,110,2013-05-07 11:52:00
7:54 AM,64.9,59.0,81,29.91,9.0,ESE,10.4,-,N/A,,Overcast,110,2013-05-07 11:54:00
8:46 AM,66.2,59.0,78,29.94,10.0,SE,12.7,20.7,N/A,,Overcast,130,2013-05-07 12:46:00
8:54 AM,66.2,59.0,78,29.94,10.0,SE,12.7,20.7,N/A,,Overcast,130,2013-05-07 12:54:00
9:54 AM,68.0,60.1,76,29.94,10.0,East,10.4,-,N/A,,Overcast,100,2013-05-07 13:54:00
10:04 AM,69.8,60.8,73,29.94,10.0,ESE,9.2,-,N/A,,Overcast,110,2013-05-07 14:04:00
10:34 AM,69.8,60.8,73,29.95,10.0,East,12.7,-,N/A,,Overcast,100,2013-05-07 14:34:00
10:54 AM,72.0,60.1,66,29.95,10.0,ESE,10.4,-,N/A,,Mostly Cloudy,110,2013-05-07 14:54:00
11:30 AM,75.2,57.2,53,29.94,10.0,SE,13.8,23.0,N/A,,Overcast,130,2013-05-07 15:30:00
11:54 AM,75.0,59.0,57,29.93,10.0,South,12.7,18.4,N/A,,Mostly Cloudy,180,2013-05-07 15:54:00
12:10 PM,75.2,59.0,57,29.92,10.0,SE,10.4,-,N/A,,Mostly Cloudy,140,2013-05-07 16:10:00
12:54 PM,73.9,60.1,62,29.91,10.0,East,8.1,-,N/A,,Overcast,100,2013-05-07 16:54:00
1:54 PM,73.9,60.1,62,29.90,10.0,East,11.5,-,N/A,,Mostly Cloudy,100,2013-05-07 17:54:00
2:54 PM,69.1,59.0,70,29.90,10.0,ENE,13.8,-,N/A,,Scattered Clouds,70,2013-05-07 18:54:00
3:09 PM,66.2,59.0,78,29.90,10.0,East,15.0,-,N/A,,Mostly Cloudy,80,2013-05-07 19:09:00
3:54 PM,64.9,57.9,78,29.88,10.0,ENE,9.2,-,N/A,,Overcast,70,2013-05-07 19:54:00
4:27 PM,68.0,59.0,73,29.87,10.0,East,10.4,-,N/A,,Scattered Clouds,90,2013-05-07 20:27:00
4:54 PM,69.1,60.1,73,29.87,10.0,ESE,8.1,-,N/A,,Mostly Cloudy,110,2013-05-07 20:54:00
5:54 PM,69.1,59.0,70,29.86,10.0,ESE,10.4,-,N/A,,Overcast,110,2013-05-07 21:54:00
6:54 PM,66.0,57.9,75,29.89,6.0,SSE,10.4,-,0.02,Rain,Light Rain,150,2013-05-07 22:54:00
7:54 PM,64.0,55.0,73,29.91,10.0,Calm,Calm,-,0.01,,Overcast,0,2013-05-07 23:54:00
8:54 PM,64.0,57.0,78,29.94,10.0,SW,5.8,-,N/A,,Overcast,220,2013-05-08 00:54:00
9:54 PM,60.1,54.0,80,29.95,9.0,East,4.6,-,N/A,,Scattered Clouds,80,2013-05-08 01:54:00
10:54 PM,61.0,55.0,81,29.96,10.0,SE,3.5,-,N/A,,Overcast,140,2013-05-08 02:54:00
11:54 PM,61.0,51.1,70,29.97,10.0,SSE,4.6,-,N/A,,Partly Cloudy,160,2013-05-08 03:54:00